Daily Weather Observations for Burdell (Townsville)
For Monday 25th February 2019

This table is designed for ease of comparison to Bureau of Meteorology recorded weather data.

Station Details Name: BURDELL Lat: -19.24 Lon: 146.69 Height: 8.5 m
Date/Time
EST
Temp
°C
App
Temp
°C
Dew
Point
°C
Rel
Hum
%
Delta-T
°C
Wind Press
QNH
hPa
Press
MSL
hPa
Rain since
9am
mm
Dir  Spd
km/h
Gust
km/h
Spd
kts
Gust
kts
25/11:30pm 26.2 28.2 21.2 74 3.5 SE 13 18 7 10 1013.3 1013.3 0.0
25/11:00pm 26.4 28.9 21.6 75 3.4 SE 11 16 6 9 1013.4 1013.4 0.0
25/10:30pm 26.4 29.3 21.6 75 3.4 ESE 10 16 5 9 1013.5 1013.5 0.0
25/10:00pm 26.8 29.0 21.8 74 3.5 ESE 13 21 7 11 1013.5 1013.5 0.0
25/09:30pm 26.9 29.2 22.0 75 3.5 SE 14 21 7 11 1013.3 1013.3 0.0
25/09:00pm 27.4 30.0 22.0 73 3.8 ESE 14 21 7 11 1013.1 1013.1 0.0
25/08:30pm 27.4 29.9 22.1 73 3.7 ESE 19 29 10 16 1013.0 1013.0 0.0
25/08:00pm 27.6 30.1 22.1 72 3.9 E 23 37 13 20 1012.9 1012.9 0.0
25/07:30pm 27.5 29.9 22.0 72 3.9 E 17 23 9 13 1012.6 1012.6 0.0
25/07:00pm 27.7 30.3 21.9 71 4.1 E 12 13 6 7 1012.5 1012.5 0.0
25/06:30pm 28.3 30.7 21.4 67 4.8 E 20 26 11 14 1012.4 1012.4 0.0
25/06:00pm 29.2 32.2 21.9 65 5.1 E 20 32 11 17 1012.1 1012.1 0.0
25/05:30pm 30.3 34.1 22.5 65 5.5 ENE 18 29 10 16 1011.8 1011.8 0.0
25/05:00pm 30.7 34.7 22.7 63 5.7 ENE 17 23 9 13 1011.5 1011.5 0.0
25/04:30pm 31.2 35.6 23.1 63 5.8 ENE 18 26 10 14 1011.1 1011.1 0.0
25/04:00pm 31.3 36.6 23.7 64 5.5 NE 16 23 9 13 1011.2 1011.2 0.0
25/03:30pm 30.8 35.4 23.2 64 5.5 ENE 15 18 8 10 1011.6 1011.6 0.0
25/03:00pm 31.2 35.6 23.1 63 5.8 ENE 20 26 11 14 1011.7 1011.7 0.0
25/02:30pm 30.8 35.4 23.2 64 5.5 SE 20 26 11 14 1011.8 1011.8 0.0
25/02:00pm 29.6 33.0 22.4 69 5.1 SE 16 21 9 11 1012.2 1012.2 0.0
25/01:30pm 31.2 35.3 22.8 62 6.0 ESE 16 23 9 13 1012.4 1012.4 0.0
25/01:00pm 30.7 34.5 22.3 62 6.0 E 18 26 10 14 1012.8 1012.8 0.0
25/12:00pm 31.1 33.9 21.4 57 6.8 ESE 24 32 13 17 1013.9 1013.9 0.0
25/11:30am 30.1 33.0 21.5 60 6.0 SSE 35 42 19 23 1014.4 1014.4 0.0
25/11:00am 30.3 33.4 21.7 60 6.0 SSE 27 37 15 20 1014.8 1014.8 0.0
25/10:30am 30.3 33.6 22.1 62 5.8 SE 24 32 13 17 1015.1 1015.1 0.0
25/10:00am 29.3 33.4 23.4 71 4.3 SSE 15 23 8 13 1015.4 1015.4 0.0
25/09:30am 28.1 31.3 22.8 73 3.8 SSE 21 26 11 14 1015.6 1015.6 0.0
25/09:00am 27.8 30.8 23.6 81 3.0 SE 17 26 9 14 1015.5 1015.5 0.0
25/08:30am 26.1 27.9 22.5 83 2.6 SE 20 29 11 16 1015.4 1015.4 0.0
25/08:00am 26.2 28.9 22.7 81 2.5 S 12 18 7 10 1015.0 1015.0 0.0
25/07:30am 25.7 27.9 22.2 82 2.5 S 14 18 8 10 1014.5 1014.5 0.0
25/07:00am 24.6 27.0 21.9 85 1.9 S 13 18 7 10 1014.3 1014.3 0.0
25/06:30am 24.0 26.6 21.7 87 1.6 S 10 13 5 7 1013.9 1013.9 0.0
25/06:00am 23.7 26.5 21.6 88 1.5 S 10 13 5 7 1013.5 1013.5 0.0
25/05:30am 23.8 27.1 21.9 89 1.3 S 8 10 4 6 1013.3 1013.3 0.0
25/05:00am 24.2 28.6 22.1 88 1.5 SSW 3 5 2 3 1012.8 1012.8 0.0
25/04:30am 24.6 27.3 22.2 87 1.7 SSE 11 16 6 9 1012.5 1012.5 0.0
25/04:00am 24.9 28.2 21.8 83 2.2 SSE 8 10 4 6 1012.3 1012.3 0.0
25/03:30am 25.2 29.1 22.1 83 2.2 S 6 8 3 4 1012.2 1012.2 0.0
25/03:00am 25.7 29.3 22.2 81 2.5 SSE 7 10 4 6 1012.2 1012.2 0.0
25/02:30am 25.8 28.7 22.1 80 2.6 SE 11 18 6 10 1012.1 1012.1 0.0
25/02:00am 25.7 29.8 22.2 81 2.5 SE 4 8 2 4 1012.4 1012.4 0.0
25/01:30am 25.6 29.4 22.5 83 2.2 SE 6 8 3 4 1012.5 1012.5 0.0
25/01:00am 26.1 29.5 22.6 81 2.5 SE 9 13 5 7 1012.7 1012.7 0.0
25/12:30am 26.1 29.9 22.6 81 2.5 SE 7 10 4 6 1012.8 1012.8 0.0
25/12:00am 26.1 28.9 22.8 82 2.4 SE 13 18 7 10 1013.1 1013.1 0.0
 


NOTE: The apparent temperature specified in the table above is calculated using both the Heat Index and Steadman method. This differs to the Bureau of Meteorology's calculation which uses the Steadman method alone.